sensor_id;sensor_type;location;lat;lon;timestamp;pressure;altitude;pressure_sealevel;temperature;humidity
8573;BME280;4324;42.012;24.872;2024-02-16T00:00:12;99483.78;;;9.45;57.72
8573;BME280;4324;42.012;24.872;2024-02-16T00:02:39;99486.13;;;9.48;56.95
8573;BME280;4324;42.012;24.872;2024-02-16T00:05:08;99489.19;;;9.53;56.58
8573;BME280;4324;42.012;24.872;2024-02-16T00:07:37;99486.09;;;9.58;56.28
8573;BME280;4324;42.012;24.872;2024-02-16T00:10:05;99440.03;;;9.33;56.69
8573;BME280;4324;42.012;24.872;2024-02-16T00:12:34;99467.19;;;9.53;56.28
8573;BME280;4324;42.012;24.872;2024-02-16T00:15:01;99477.97;;;9.69;56.43
8573;BME280;4324;42.012;24.872;2024-02-16T00:17:29;99485.44;;;9.74;56.42
8573;BME280;4324;42.012;24.872;2024-02-16T00:19:56;99480.84;;;9.76;56.34
8573;BME280;4324;42.012;24.872;2024-02-16T00:22:23;99486.66;;;9.79;56.24
8573;BME280;4324;42.012;24.872;2024-02-16T00:24:50;99487.34;;;9.81;56.40
8573;BME280;4324;42.012;24.872;2024-02-16T00:27:17;99489.69;;;9.84;55.87
8573;BME280;4324;42.012;24.872;2024-02-16T00:29:45;99498.16;;;9.88;56.23
8573;BME280;4324;42.012;24.872;2024-02-16T00:32:12;99495.81;;;9.85;56.41
8573;BME280;4324;42.012;24.872;2024-02-16T00:34:39;99451.47;;;9.51;56.89
8573;BME280;4324;42.012;24.872;2024-02-16T00:37:07;99499.66;;;9.73;57.46
8573;BME280;4324;42.012;24.872;2024-02-16T00:39:35;99497.50;;;9.58;57.76
8573;BME280;4324;42.012;24.872;2024-02-16T00:42:02;99503.38;;;9.52;58.01
8573;BME280;4324;42.012;24.872;2024-02-16T00:44:29;99471.19;;;9.29;58.00
8573;BME280;4324;42.012;24.872;2024-02-16T00:46:58;99495.34;;;9.44;58.06
8573;BME280;4324;42.012;24.872;2024-02-16T00:49:25;99487.84;;;9.39;57.87
8573;BME280;4324;42.012;24.872;2024-02-16T00:51:52;99500.50;;;9.45;57.68
8573;BME280;4324;42.012;24.872;2024-02-16T00:54:19;99487.41;;;9.44;57.84
8573;BME280;4324;42.012;24.872;2024-02-16T00:56:46;99497.78;;;9.55;58.01
8573;BME280;4324;42.012;24.872;2024-02-16T00:59:14;99498.47;;;9.57;58.05
8573;BME280;4324;42.012;24.872;2024-02-16T01:01:41;99505.13;;;9.61;58.26
8573;BME280;4324;42.012;24.872;2024-02-16T01:04:09;99490.78;;;9.64;58.45
8573;BME280;4324;42.012;24.872;2024-02-16T01:06:36;99497.22;;;9.61;58.54
8573;BME280;4324;42.012;24.872;2024-02-16T01:09:03;99485.09;;;9.59;58.71
8573;BME280;4324;42.012;24.872;2024-02-16T01:11:30;99462.78;;;9.43;58.40
8573;BME280;4324;42.012;24.872;2024-02-16T01:13:57;99482.91;;;9.54;58.07
8573;BME280;4324;42.012;24.872;2024-02-16T01:16:24;99489.41;;;9.60;58.13
8573;BME280;4324;42.012;24.872;2024-02-16T01:18:51;99493.72;;;9.61;58.53
8573;BME280;4324;42.012;24.872;2024-02-16T01:21:20;99424.53;;;9.20;58.35
8573;BME280;4324;42.012;24.872;2024-02-16T01:23:47;99488.00;;;9.65;58.76
8573;BME280;4324;42.012;24.872;2024-02-16T01:26:13;99485.34;;;9.65;59.52
8573;BME280;4324;42.012;24.872;2024-02-16T01:28:41;99490.78;;;9.64;59.32
8573;BME280;4324;42.012;24.872;2024-02-16T01:31:08;99471.63;;;9.52;59.13
8573;BME280;4324;42.012;24.872;2024-02-16T01:33:35;99479.69;;;9.60;59.06
8573;BME280;4324;42.012;24.872;2024-02-16T01:36:02;99483.69;;;9.64;58.62
8573;BME280;4324;42.012;24.872;2024-02-16T01:38:31;99487.16;;;9.65;58.66
8573;BME280;4324;42.012;24.872;2024-02-16T01:40:58;99482.72;;;9.65;59.06
8573;BME280;4324;42.012;24.872;2024-02-16T01:43:27;99486.47;;;9.63;59.11
8573;BME280;4324;42.012;24.872;2024-02-16T01:45:54;99470.56;;;9.45;59.21
8573;BME280;4324;42.012;24.872;2024-02-16T01:48:22;99492.91;;;9.60;59.46
8573;BME280;4324;42.012;24.872;2024-02-16T01:50:50;99489.72;;;9.57;59.52
8573;BME280;4324;42.012;24.872;2024-02-16T01:53:17;99475.56;;;9.48;59.69
8573;BME280;4324;42.012;24.872;2024-02-16T01:55:47;99483.91;;;9.53;59.55
8573;BME280;4324;42.012;24.872;2024-02-16T01:58:14;99485.69;;;9.53;59.08
8573;BME280;4324;42.012;24.872;2024-02-16T02:00:41;99474.06;;;9.45;59.00
8573;BME280;4324;42.012;24.872;2024-02-16T02:03:08;99478.06;;;9.50;59.36
8573;BME280;4324;42.012;24.872;2024-02-16T02:05:43;99491.50;;;9.56;59.77
8573;BME280;4324;42.012;24.872;2024-02-16T02:08:12;99493.88;;;9.59;59.92
8573;BME280;4324;42.012;24.872;2024-02-16T02:10:40;99467.09;;;9.44;59.84
8573;BME280;4324;42.012;24.872;2024-02-16T02:13:09;99481.06;;;9.64;60.07
8573;BME280;4324;42.012;24.872;2024-02-16T02:15:37;99478.00;;;9.59;60.03
8573;BME280;4324;42.012;24.872;2024-02-16T02:18:04;99472.72;;;9.59;59.97
8573;BME280;4324;42.012;24.872;2024-02-16T02:20:31;99480.59;;;9.69;59.36
8573;BME280;4324;42.012;24.872;2024-02-16T02:23:01;99485.44;;;9.74;59.32
8573;BME280;4324;42.012;24.872;2024-02-16T02:25:29;99485.16;;;9.77;59.49
8573;BME280;4324;42.012;24.872;2024-02-16T02:27:57;99475.16;;;9.70;59.61
8573;BME280;4324;42.012;24.872;2024-02-16T02:30:25;99457.91;;;9.66;59.81
8573;BME280;4324;42.012;24.872;2024-02-16T02:32:52;99479.25;;;9.83;59.81
8573;BME280;4324;42.012;24.872;2024-02-16T02:35:19;99478.56;;;9.81;60.06
8573;BME280;4324;42.012;24.872;2024-02-16T02:37:47;99484.03;;;9.79;60.14
8573;BME280;4324;42.012;24.872;2024-02-16T02:40:16;99451.25;;;9.62;60.02
8573;BME280;4324;42.012;24.872;2024-02-16T02:42:51;99413.03;;;9.39;59.73
8573;BME280;4324;42.012;24.872;2024-02-16T02:45:22;99460.97;;;9.72;59.75
8573;BME280;4324;42.012;24.872;2024-02-16T02:47:58;99473.56;;;9.78;59.89
8573;BME280;4324;42.012;24.872;2024-02-16T02:50:26;99475.56;;;9.76;60.19
8573;BME280;4324;42.012;24.872;2024-02-16T02:52:54;99471.22;;;9.75;60.56
8573;BME280;4324;42.012;24.872;2024-02-16T02:55:22;99467.91;;;9.73;60.67
8573;BME280;4324;42.012;24.872;2024-02-16T02:57:50;99471.00;;;9.68;60.44
8573;BME280;4324;42.012;24.872;2024-02-16T03:00:18;99463.50;;;9.63;60.59
8573;BME280;4324;42.012;24.872;2024-02-16T03:02:45;99452.47;;;9.50;60.41
8573;BME280;4324;42.012;24.872;2024-02-16T03:05:12;99480.41;;;9.53;60.26
8573;BME280;4324;42.012;24.872;2024-02-16T03:07:40;99470.03;;;9.41;60.00
8573;BME280;4324;42.012;24.872;2024-02-16T03:10:08;99485.59;;;9.44;59.76
8573;BME280;4324;42.012;24.872;2024-02-16T03:12:37;99483.09;;;9.43;59.84
8573;BME280;4324;42.012;24.872;2024-02-16T03:15:05;99492.03;;;9.42;59.96
8573;BME280;4324;42.012;24.872;2024-02-16T03:17:35;99491.31;;;9.40;60.52
8573;BME280;4324;42.012;24.872;2024-02-16T03:20:02;99499.09;;;9.41;60.38
8573;BME280;4324;42.012;24.872;2024-02-16T03:22:33;99491.31;;;9.40;60.54
8573;BME280;4324;42.012;24.872;2024-02-16T03:25:01;99491.31;;;9.40;60.65
8573;BME280;4324;42.012;24.872;2024-02-16T03:27:28;99496.78;;;9.38;60.70
8573;BME280;4324;42.012;24.872;2024-02-16T03:29:57;99485.41;;;9.28;60.12
8573;BME280;4324;42.012;24.872;2024-02-16T03:32:24;99501.50;;;9.35;59.97
8573;BME280;4324;42.012;24.872;2024-02-16T03:34:52;99458.53;;;9.05;60.41
8573;BME280;4324;42.012;24.872;2024-02-16T03:37:21;99505.00;;;9.26;60.75
8573;BME280;4324;42.012;24.872;2024-02-16T03:39:48;99501.69;;;9.24;61.33
8573;BME280;4324;42.012;24.872;2024-02-16T03:42:16;99497.00;;;9.17;61.38
8573;BME280;4324;42.012;24.872;2024-02-16T03:44:45;99499.47;;;9.19;61.70
8573;BME280;4324;42.012;24.872;2024-02-16T03:47:14;99502.44;;;9.16;62.10
8573;BME280;4324;42.012;24.872;2024-02-16T03:49:42;99498.25;;;9.13;62.48
8573;BME280;4324;42.012;24.872;2024-02-16T03:52:10;99515.22;;;9.11;62.52
8573;BME280;4324;42.012;24.872;2024-02-16T03:54:39;99504.09;;;9.07;61.83
8573;BME280;4324;42.012;24.872;2024-02-16T03:57:07;99507.03;;;9.04;62.17
8573;BME280;4324;42.012;24.872;2024-02-16T03:59:37;99510.50;;;9.05;62.49
8573;BME280;4324;42.012;24.872;2024-02-16T04:02:05;99509.97;;;9.01;62.82
8573;BME280;4324;42.012;24.872;2024-02-16T04:04:35;99485.03;;;8.76;62.74
8573;BME280;4324;42.012;24.872;2024-02-16T04:07:05;99510.97;;;8.90;63.80
8573;BME280;4324;42.012;24.872;2024-02-16T04:09:36;99513.63;;;8.81;63.45
8573;BME280;4324;42.012;24.872;2024-02-16T04:12:02;99514.78;;;8.68;63.22
8573;BME280;4324;42.012;24.872;2024-02-16T04:14:30;99511.59;;;8.55;63.56
8573;BME280;4324;42.012;24.872;2024-02-16T04:16:59;99505.34;;;8.46;64.03
8573;BME280;4324;42.012;24.872;2024-02-16T04:19:27;99509.38;;;8.41;63.33
8573;BME280;4324;42.012;24.872;2024-02-16T04:21:56;99522.16;;;8.45;63.65
8573;BME280;4324;42.012;24.872;2024-02-16T04:24:23;99508.97;;;8.45;63.88
8573;BME280;4324;42.012;24.872;2024-02-16T04:26:50;99509.50;;;8.49;64.05
8573;BME280;4324;42.012;24.872;2024-02-16T04:29:18;99518.41;;;8.58;64.09
8573;BME280;4324;42.012;24.872;2024-02-16T04:31:45;99514.78;;;8.59;64.32
8573;BME280;4324;42.012;24.872;2024-02-16T04:34:13;99511.16;;;8.60;64.42
8573;BME280;4324;42.012;24.872;2024-02-16T04:36:41;99505.03;;;8.69;64.22
8573;BME280;4324;42.012;24.872;2024-02-16T04:39:10;99502.94;;;8.72;64.50
8573;BME280;4324;42.012;24.872;2024-02-16T04:41:41;99508.78;;;8.76;64.49
8573;BME280;4324;42.012;24.872;2024-02-16T04:44:08;99499.47;;;8.72;63.61
8573;BME280;4324;42.012;24.872;2024-02-16T04:46:35;99506.16;;;8.66;63.11
8573;BME280;4324;42.012;24.872;2024-02-16T04:49:03;99500.63;;;8.50;63.68
8573;BME280;4324;42.012;24.872;2024-02-16T04:51:31;99512.44;;;8.46;64.07
8573;BME280;4324;42.012;24.872;2024-02-16T04:53:58;99512.00;;;8.41;64.36
8573;BME280;4324;42.012;24.872;2024-02-16T04:56:27;99510.75;;;8.35;64.27
8573;BME280;4324;42.012;24.872;2024-02-16T04:58:54;99525.56;;;8.27;64.95
8573;BME280;4324;42.012;24.872;2024-02-16T05:01:22;99530.03;;;8.16;64.87
8573;BME280;4324;42.012;24.872;2024-02-16T05:03:55;99523.06;;;7.96;65.45
8573;BME280;4324;42.012;24.872;2024-02-16T05:06:23;99536.09;;;7.88;65.29
8573;BME280;4324;42.012;24.872;2024-02-16T05:08:51;99534.09;;;7.70;65.11
8573;BME280;4324;42.012;24.872;2024-02-16T05:11:21;99539.38;;;7.70;64.84
8573;BME280;4324;42.012;24.872;2024-02-16T05:13:52;99490.44;;;7.37;65.28
8573;BME280;4324;42.012;24.872;2024-02-16T05:16:19;99548.09;;;7.71;65.69
8573;BME280;4324;42.012;24.872;2024-02-16T05:18:47;99539.63;;;7.67;65.79
8573;BME280;4324;42.012;24.872;2024-02-16T05:21:14;99544.91;;;7.67;67.00
8573;BME280;4324;42.012;24.872;2024-02-16T05:23:45;99553.94;;;7.74;67.46
8573;BME280;4324;42.012;24.872;2024-02-16T05:26:15;99548.56;;;7.76;67.89
8573;BME280;4324;42.012;24.872;2024-02-16T05:28:42;99538.81;;;7.67;67.64
8573;BME280;4324;42.012;24.872;2024-02-16T05:31:15;99546.03;;;7.74;68.09
8573;BME280;4324;42.012;24.872;2024-02-16T05:33:47;99555.50;;;7.77;68.10
8573;BME280;4324;42.012;24.872;2024-02-16T05:36:23;99561.34;;;7.81;66.95
8573;BME280;4324;42.012;24.872;2024-02-16T05:39:00;99562.31;;;7.80;66.44
8573;BME280;4324;42.012;24.872;2024-02-16T05:41:45;99549.91;;;7.70;67.28
8573;BME280;4324;42.012;24.872;2024-02-16T05:44:16;99572.72;;;7.81;67.20
8573;BME280;4324;42.012;24.872;2024-02-16T05:46:46;99562.16;;;7.71;67.31
8573;BME280;4324;42.012;24.872;2024-02-16T05:49:13;99568.53;;;7.79;66.82
8573;BME280;4324;42.012;24.872;2024-02-16T05:51:41;99576.00;;;7.73;67.67
8573;BME280;4324;42.012;24.872;2024-02-16T05:54:26;99575.22;;;7.83;68.54
8573;BME280;4324;42.012;24.872;2024-02-16T05:56:56;99578.81;;;7.82;68.49
8573;BME280;4324;42.012;24.872;2024-02-16T05:59:23;99581.75;;;7.88;67.74
8573;BME280;4324;42.012;24.872;2024-02-16T06:01:54;99557.72;;;7.82;67.94
8573;BME280;4324;42.012;24.872;2024-02-16T06:04:23;99581.53;;;8.01;67.39
8573;BME280;4324;42.012;24.872;2024-02-16T06:06:52;99566.91;;;7.97;68.06
8573;BME280;4324;42.012;24.872;2024-02-16T06:09:20;99583.75;;;8.15;67.98
8573;BME280;4324;42.012;24.872;2024-02-16T06:11:48;99585.56;;;8.24;67.93
8573;BME280;4324;42.012;24.872;2024-02-16T06:14:16;99542.78;;;8.11;67.84
8573;BME280;4324;42.012;24.872;2024-02-16T06:16:51;99581.06;;;8.46;68.17
8573;BME280;4324;42.012;24.872;2024-02-16T06:19:20;99582.00;;;8.45;68.28
8573;BME280;4324;42.012;24.872;2024-02-16T06:21:47;99582.00;;;8.45;67.88
8573;BME280;4324;42.012;24.872;2024-02-16T06:24:15;99555.88;;;8.32;67.33
8573;BME280;4324;42.012;24.872;2024-02-16T06:26:43;99509.34;;;8.02;66.93
8573;BME280;4324;42.012;24.872;2024-02-16T06:29:12;99590.06;;;8.43;67.20
8573;BME280;4324;42.012;24.872;2024-02-16T06:31:40;99543.06;;;8.18;67.20
8573;BME280;4324;42.012;24.872;2024-02-16T06:34:08;99596.59;;;8.49;67.67
8573;BME280;4324;42.012;24.872;2024-02-16T06:36:37;99578.41;;;8.46;67.71
8573;BME280;4324;42.012;24.872;2024-02-16T06:39:04;99595.50;;;8.61;67.56
8573;BME280;4324;42.012;24.872;2024-02-16T06:41:34;99572.03;;;8.58;67.39
8573;BME280;4324;42.012;24.872;2024-02-16T06:44:05;99591.19;;;8.80;67.43
8573;BME280;4324;42.012;24.872;2024-02-16T06:46:32;99558.53;;;8.71;66.77
8573;BME280;4324;42.012;24.872;2024-02-16T06:49:02;99482.41;;;8.37;66.43
8573;BME280;4324;42.012;24.872;2024-02-16T06:51:37;99568.88;;;9.11;66.53
8573;BME280;4324;42.012;24.872;2024-02-16T06:54:04;99594.41;;;9.40;66.40
8573;BME280;4324;42.012;24.872;2024-02-16T06:56:31;99593.94;;;9.54;66.27
8573;BME280;4324;42.012;24.872;2024-02-16T06:58:59;99535.16;;;9.33;66.07
8573;BME280;4324;42.012;24.872;2024-02-16T07:01:26;99576.19;;;9.74;65.71
8573;BME280;4324;42.012;24.872;2024-02-16T07:03:54;99560.84;;;9.78;65.17
8573;BME280;4324;42.012;24.872;2024-02-16T07:06:22;99586.84;;;10.10;64.74
8573;BME280;4324;42.012;24.872;2024-02-16T07:08:54;99601.81;;;10.29;65.33
8573;BME280;4324;42.012;24.872;2024-02-16T07:11:21;99601.22;;;10.35;66.78
8573;BME280;4324;42.012;24.872;2024-02-16T07:13:48;99601.81;;;10.29;66.79
8573;BME280;4324;42.012;24.872;2024-02-16T07:16:16;99600.91;;;10.10;66.41
8573;BME280;4324;42.012;24.872;2024-02-16T07:18:44;99550.00;;;9.53;66.37
8573;BME280;4324;42.012;24.872;2024-02-16T07:21:11;99600.16;;;9.63;67.05
8573;BME280;4324;42.012;24.872;2024-02-16T07:23:39;99605.09;;;9.48;66.83
8573;BME280;4324;42.012;24.872;2024-02-16T07:26:07;99597.22;;;9.38;66.53
8573;BME280;4324;42.012;24.872;2024-02-16T07:28:34;99610.09;;;9.41;66.39
8573;BME280;4324;42.012;24.872;2024-02-16T07:31:02;99617.50;;;9.38;66.50
8573;BME280;4324;42.012;24.872;2024-02-16T07:33:29;99613.47;;;9.34;66.66
8573;BME280;4324;42.012;24.872;2024-02-16T07:35:57;99606.13;;;9.28;66.14
8573;BME280;4324;42.012;24.872;2024-02-16T07:38:24;99620.56;;;9.43;66.33
8573;BME280;4324;42.012;24.872;2024-02-16T07:40:53;99618.03;;;9.51;66.35
8573;BME280;4324;42.012;24.872;2024-02-16T07:43:22;99611.03;;;9.60;66.06
8573;BME280;4324;42.012;24.872;2024-02-16T07:45:50;99614.63;;;9.68;65.74
8573;BME280;4324;42.012;24.872;2024-02-16T07:48:19;99615.13;;;9.82;65.89
8573;BME280;4324;42.012;24.872;2024-02-16T07:50:47;99599.78;;;9.85;65.78
8573;BME280;4324;42.012;24.872;2024-02-16T07:53:15;99607.50;;;10.06;65.84
8573;BME280;4324;42.012;24.872;2024-02-16T07:55:45;99617.69;;;10.29;65.78
8573;BME280;4324;42.012;24.872;2024-02-16T07:58:13;99608.25;;;10.44;65.11
8573;BME280;4324;42.012;24.872;2024-02-16T08:00:41;99609.09;;;10.62;64.13
8573;BME280;4324;42.012;24.872;2024-02-16T08:03:08;99599.84;;;10.66;63.70
8573;BME280;4324;42.012;24.872;2024-02-16T08:05:35;99612.03;;;10.77;63.72
8573;BME280;4324;42.012;24.872;2024-02-16T08:08:03;99605.69;;;10.70;64.25
8573;BME280;4324;42.012;24.872;2024-02-16T08:10:30;99609.16;;;10.71;64.96
8573;BME280;4324;42.012;24.872;2024-02-16T08:12:57;99597.31;;;10.57;64.98
8573;BME280;4324;42.012;24.872;2024-02-16T08:15:25;99618.56;;;10.65;64.86
8573;BME280;4324;42.012;24.872;2024-02-16T08:17:54;99607.50;;;10.52;64.37
8573;BME280;4324;42.012;24.872;2024-02-16T08:20:21;99616.34;;;10.60;63.94
8573;BME280;4324;42.012;24.872;2024-02-16T08:22:48;99620.44;;;10.73;63.81
8573;BME280;4324;42.012;24.872;2024-02-16T08:25:16;99577.38;;;10.53;63.26
8573;BME280;4324;42.012;24.872;2024-02-16T08:27:45;99607.88;;;10.75;62.87
8573;BME280;4324;42.012;24.872;2024-02-16T08:30:22;99625.22;;;10.87;62.08
8573;BME280;4324;42.012;24.872;2024-02-16T08:32:50;99554.06;;;10.56;61.93
8573;BME280;4324;42.012;24.872;2024-02-16T08:35:19;99619.25;;;11.11;60.87
8573;BME280;4324;42.012;24.872;2024-02-16T08:37:47;99609.09;;;11.24;60.61
8573;BME280;4324;42.012;24.872;2024-02-16T08:40:15;99617.16;;;11.41;60.15
8573;BME280;4324;42.012;24.872;2024-02-16T08:42:42;99589.63;;;11.42;60.20
8573;BME280;4324;42.012;24.872;2024-02-16T08:45:09;99612.50;;;11.69;59.82
8573;BME280;4324;42.012;24.872;2024-02-16T08:47:37;99588.94;;;11.66;58.92
8573;BME280;4324;42.012;24.872;2024-02-16T08:50:06;99611.25;;;11.81;58.17
8573;BME280;4324;42.012;24.872;2024-02-16T08:52:35;99620.59;;;11.93;57.61
8573;BME280;4324;42.012;24.872;2024-02-16T08:55:02;99615.16;;;11.95;57.12
8573;BME280;4324;42.012;24.872;2024-02-16T08:57:31;99609.88;;;12.03;57.21
8573;BME280;4324;42.012;24.872;2024-02-16T08:59:59;99609.91;;;12.11;57.72
8573;BME280;4324;42.012;24.872;2024-02-16T09:02:26;99610.38;;;12.06;56.15
8573;BME280;4324;42.012;24.872;2024-02-16T09:04:57;99536.53;;;11.59;55.29
8573;BME280;4324;42.012;24.872;2024-02-16T09:07:27;99597.41;;;11.95;54.66
8573;BME280;4324;42.012;24.872;2024-02-16T09:09:56;99622.34;;;12.10;54.18
8573;BME280;4324;42.012;24.872;2024-02-16T09:12:24;99581.47;;;11.95;54.10
8573;BME280;4324;42.012;24.872;2024-02-16T09:14:53;99522.91;;;11.54;53.67
8573;BME280;4324;42.012;24.872;2024-02-16T09:17:26;99588.09;;;11.91;53.30
8573;BME280;4324;42.012;24.872;2024-02-16T09:19:57;99581.88;;;11.82;52.98
8573;BME280;4324;42.012;24.872;2024-02-16T09:22:25;99567.75;;;11.74;52.79
8573;BME280;4324;42.012;24.872;2024-02-16T09:24:56;99619.84;;;12.09;52.65
8573;BME280;4324;42.012;24.872;2024-02-16T09:27:25;99589.94;;;11.91;52.96
8573;BME280;4324;42.012;24.872;2024-02-16T09:29:53;99560.78;;;11.73;52.95
8573;BME280;4324;42.012;24.872;2024-02-16T09:32:20;99619.88;;;12.17;53.31
8573;BME280;4324;42.012;24.872;2024-02-16T09:34:51;99623.34;;;12.18;53.14
8573;BME280;4324;42.012;24.872;2024-02-16T09:37:20;99584.63;;;11.91;52.10
8573;BME280;4324;42.012;24.872;2024-02-16T09:39:47;99617.72;;;12.13;51.44
8573;BME280;4324;42.012;24.872;2024-02-16T09:42:16;99616.03;;;12.11;51.75
8573;BME280;4324;42.012;24.872;2024-02-16T09:44:44;99618.88;;;12.18;51.64
8573;BME280;4324;42.012;24.872;2024-02-16T09:47:14;99513.47;;;11.60;52.16
8573;BME280;4324;42.012;24.872;2024-02-16T09:49:45;99613.78;;;12.33;52.63
8573;BME280;4324;42.012;24.872;2024-02-16T09:52:18;99612.47;;;12.45;52.20
8573;BME280;4324;42.012;24.872;2024-02-16T09:54:45;99596.88;;;12.42;51.65
8573;BME280;4324;42.012;24.872;2024-02-16T09:57:18;99604.19;;;12.56;51.61
8573;BME280;4324;42.012;24.872;2024-02-16T09:59:47;99605.03;;;12.65;51.67
8573;BME280;4324;42.012;24.872;2024-02-16T10:02:14;99591.06;;;12.71;51.68
8573;BME280;4324;42.012;24.872;2024-02-16T10:04:41;99597.56;;;12.93;51.75
8573;BME280;4324;42.012;24.872;2024-02-16T10:07:08;99600.22;;;13.01;51.16
8573;BME280;4324;42.012;24.872;2024-02-16T10:09:36;99585.25;;;13.00;51.16
8573;BME280;4324;42.012;24.872;2024-02-16T10:12:05;99545.25;;;12.86;50.92
8573;BME280;4324;42.012;24.872;2024-02-16T10:14:34;99562.69;;;13.13;51.47
8573;BME280;4324;42.012;24.872;2024-02-16T10:17:01;99581.63;;;13.26;51.13
8573;BME280;4324;42.012;24.872;2024-02-16T10:19:29;99575.13;;;13.28;50.85
8573;BME280;4324;42.012;24.872;2024-02-16T10:22:07;99574.81;;;13.31;51.20
8573;BME280;4324;42.012;24.872;2024-02-16T10:24:34;99568.63;;;13.31;49.87
8573;BME280;4324;42.012;24.872;2024-02-16T10:27:04;99538.38;;;13.16;49.06
8573;BME280;4324;42.012;24.872;2024-02-16T10:29:33;99567.28;;;13.43;48.86
8573;BME280;4324;42.012;24.872;2024-02-16T10:32:01;99553.63;;;13.54;48.74
8573;BME280;4324;42.012;24.872;2024-02-16T10:34:28;99560.69;;;13.70;48.64
8573;BME280;4324;42.012;24.872;2024-02-16T10:36:57;99538.25;;;13.73;47.67
8573;BME280;4324;42.012;24.872;2024-02-16T10:39:25;99552.47;;;13.88;47.96
8573;BME280;4324;42.012;24.872;2024-02-16T10:41:53;99535.84;;;13.86;47.00
8573;BME280;4324;42.012;24.872;2024-02-16T10:44:23;99529.81;;;13.92;46.72
8573;BME280;4324;42.012;24.872;2024-02-16T10:46:51;99538.38;;;14.11;46.42
8573;BME280;4324;42.012;24.872;2024-02-16T10:49:19;99556.91;;;14.27;47.44
8573;BME280;4324;42.012;24.872;2024-02-16T10:51:52;99540.09;;;14.26;47.05
8573;BME280;4324;42.012;24.872;2024-02-16T10:54:26;99515.19;;;14.19;46.39
8573;BME280;4324;42.012;24.872;2024-02-16T10:56:55;99547.78;;;14.52;45.41
8573;BME280;4324;42.012;24.872;2024-02-16T10:59:22;99543.03;;;14.63;45.27
8573;BME280;4324;42.012;24.872;2024-02-16T11:01:59;99541.09;;;14.80;45.28
8573;BME280;4324;42.012;24.872;2024-02-16T11:04:36;99543.84;;;14.86;45.42
8573;BME280;4324;42.012;24.872;2024-02-16T11:07:11;99544.06;;;14.99;45.44
8573;BME280;4324;42.012;24.872;2024-02-16T11:09:39;99537.25;;;15.12;44.38
8573;BME280;4324;42.012;24.872;2024-02-16T11:12:08;99526.69;;;15.18;44.30
8573;BME280;4324;42.012;24.872;2024-02-16T11:14:38;99521.09;;;15.28;43.91
8573;BME280;4324;42.012;24.872;2024-02-16T11:17:11;99512.34;;;15.49;44.13
8573;BME280;4324;42.012;24.872;2024-02-16T11:19:40;99506.00;;;15.65;43.73
8573;BME280;4324;42.012;24.872;2024-02-16T11:22:08;99516.41;;;15.75;43.76
8573;BME280;4324;42.012;24.872;2024-02-16T11:24:37;99525.03;;;15.91;43.60
8573;BME280;4324;42.012;24.872;2024-02-16T11:27:07;99522.81;;;15.95;42.91
8573;BME280;4324;42.012;24.872;2024-02-16T11:29:36;99473.31;;;15.78;43.05
8573;BME280;4324;42.012;24.872;2024-02-16T11:32:05;99513.53;;;16.12;42.75
8573;BME280;4324;42.012;24.872;2024-02-16T11:34:34;99515.75;;;16.09;42.01
8573;BME280;4324;42.012;24.872;2024-02-16T11:37:04;99507.25;;;15.99;41.75
8573;BME280;4324;42.012;24.872;2024-02-16T11:39:32;99519.19;;;16.03;41.83
8573;BME280;4324;42.012;24.872;2024-02-16T11:42:03;99502.66;;;15.92;41.51
8573;BME280;4324;42.012;24.872;2024-02-16T11:44:31;99514.50;;;15.90;41.75
8573;BME280;4324;42.012;24.872;2024-02-16T11:47:00;99424.50;;;15.18;42.17
8573;BME280;4324;42.012;24.872;2024-02-16T11:49:28;99502.22;;;15.59;43.46
8573;BME280;4324;42.012;24.872;2024-02-16T11:51:59;99493.41;;;15.44;43.26
8573;BME280;4324;42.012;24.872;2024-02-16T11:54:26;99512.44;;;15.41;43.00
8573;BME280;4324;42.012;24.872;2024-02-16T11:56:54;99498.28;;;15.11;43.08
8573;BME280;4324;42.012;24.872;2024-02-16T11:59:22;99491.91;;;14.97;43.57
8573;BME280;4324;42.012;24.872;2024-02-16T12:01:51;99510.94;;;15.09;44.88
8573;BME280;4324;42.012;24.872;2024-02-16T12:04:25;99503.59;;;15.11;44.81
8573;BME280;4324;42.012;24.872;2024-02-16T12:06:57;99506.91;;;15.13;44.24
8573;BME280;4324;42.012;24.872;2024-02-16T12:09:25;99511.97;;;15.08;43.54
8573;BME280;4324;42.012;24.872;2024-02-16T12:11:53;99508.47;;;15.07;43.59
8573;BME280;4324;42.012;24.872;2024-02-16T12:14:22;99500.00;;;15.04;43.36
8573;BME280;4324;42.012;24.872;2024-02-16T12:16:50;99494.03;;;15.01;43.51
8573;BME280;4324;42.012;24.872;2024-02-16T12:19:18;99490.25;;;14.96;43.07
8573;BME280;4324;42.012;24.872;2024-02-16T12:21:49;99499.16;;;14.88;42.94
8573;BME280;4324;42.012;24.872;2024-02-16T12:24:18;99497.31;;;14.74;42.64
8573;BME280;4324;42.012;24.872;2024-02-16T12:26:46;99476.66;;;14.53;42.67
8573;BME280;4324;42.012;24.872;2024-02-16T12:29:14;99500.88;;;14.66;42.56
8573;BME280;4324;42.012;24.872;2024-02-16T12:31:43;99494.81;;;14.72;42.67
8573;BME280;4324;42.012;24.872;2024-02-16T12:34:11;99487.56;;;14.81;42.82
8573;BME280;4324;42.012;24.872;2024-02-16T12:36:40;99469.56;;;14.83;42.74
8573;BME280;4324;42.012;24.872;2024-02-16T12:39:08;99481.63;;;15.09;42.67
8573;BME280;4324;42.012;24.872;2024-02-16T12:41:39;99480.16;;;15.21;42.61
8573;BME280;4324;42.012;24.872;2024-02-16T12:44:09;99475.47;;;15.23;43.00
8573;BME280;4324;42.012;24.872;2024-02-16T12:46:36;99472.06;;;15.14;43.05
8573;BME280;4324;42.012;24.872;2024-02-16T12:49:04;99473.25;;;15.12;43.12
8573;BME280;4324;42.012;24.872;2024-02-16T12:51:33;99471.13;;;15.07;43.03
8573;BME280;4324;42.012;24.872;2024-02-16T12:54:00;99483.00;;;15.05;43.18
8573;BME280;4324;42.012;24.872;2024-02-16T12:56:29;99484.00;;;15.04;43.22
8573;BME280;4324;42.012;24.872;2024-02-16T12:58:58;99474.97;;;14.90;43.80
8573;BME280;4324;42.012;24.872;2024-02-16T13:01:27;99482.50;;;14.86;43.94
8573;BME280;4324;42.012;24.872;2024-02-16T13:03:55;99473.03;;;14.69;43.40
8573;BME280;4324;42.012;24.872;2024-02-16T13:06:22;99486.06;;;14.64;43.98
8573;BME280;4324;42.012;24.872;2024-02-16T13:08:50;99482.91;;;14.60;43.62
8573;BME280;4324;42.012;24.872;2024-02-16T13:11:17;99482.84;;;14.54;43.60
8573;BME280;4324;42.012;24.872;2024-02-16T13:13:44;99490.84;;;14.54;43.52
8573;BME280;4324;42.012;24.872;2024-02-16T13:16:13;99491.66;;;14.54;43.74
8573;BME280;4324;42.012;24.872;2024-02-16T13:18:40;99490.63;;;14.55;43.77
8573;BME280;4324;42.012;24.872;2024-02-16T13:21:08;99484.66;;;14.53;44.10
8573;BME280;4324;42.012;24.872;2024-02-16T13:23:35;99484.28;;;14.56;44.06